Time;durP1;ratioP1;P1;durP2;ratioP2;P2;SDS_P1;SDS_P2;PMS_P1;PMS_P2;Temp;Humidity;BMP_temperature;BMP_pressure;BME280_temperature;BME280_humidity;BME280_pressure;Samples;Min_cycle;Max_cycle;Signal;HPM_P1;HPM_P2
2022/10/24 00:00:45;;;;;;;5.95;3.90;;;;;;;19.57;41.97;101399.67;1732870;82;21075;-74
2022/10/24 00:03:12;;;;;;;5.92;3.98;;;;;;;19.57;41.98;101406.02;1732686;81;21111;-74
2022/10/24 00:05:43;;;;;;;6.00;3.85;;;;;;;19.58;41.98;101402.15;1668262;83;21549;-74
2022/10/24 00:08:09;;;;;;;;;;;;;;;19.57;41.99;101393.59;1735472;81;21020;-74
2022/10/24 00:10:35;;;;;;;4.87;3.87;;;;;;;19.57;41.96;101399.67;1732450;81;21165;-74
2022/10/24 00:13:03;;;;;;;5.08;4.15;;;;;;;19.55;41.95;101397.23;1732606;82;21582;-74
2022/10/24 00:15:29;;;;;;;5.67;3.85;;;;;;;19.55;41.95;101394.47;1732827;82;21047;-74
2022/10/24 00:17:55;;;;;;;5.03;3.87;;;;;;;19.55;41.97;101387.56;1732577;81;21546;-75
2022/10/24 00:20:22;;;;;;;5.80;4.03;;;;;;;19.56;41.99;101382.87;1731933;81;21049;-76
2022/10/24 00:22:48;;;;;;;5.90;3.77;;;;;;;19.56;41.98;101385.05;1731420;82;21293;-76
2022/10/24 00:25:14;;;;;;;5.97;3.92;;;;;;;19.55;41.96;101382.61;1731306;81;21005;-74
2022/10/24 00:27:40;;;;;;;6.53;4.20;;;;;;;19.56;41.99;101383.67;1731686;81;21036;-74
2022/10/24 00:30:08;;;;;;;6.12;3.90;;;;;;;19.56;41.98;101387.02;1726376;82;21191;-74
2022/10/24 00:32:34;;;;;;;5.95;3.95;;;;;;;19.56;41.97;101381.50;1730937;81;21107;-73
2022/10/24 00:35:00;;;;;;;6.28;4.40;;;;;;;19.55;42.00;101379.29;1730934;81;21230;-75
2022/10/24 00:37:27;;;;;;;5.35;3.80;;;;;;;19.56;41.99;101387.81;1726243;82;20992;-74
2022/10/24 00:39:53;;;;;;;4.78;3.47;;;;;;;19.56;41.98;101384.25;1730548;81;21290;-74
2022/10/24 00:42:19;;;;;;;4.80;3.85;;;;;;;19.56;41.99;101396.09;1731213;82;21060;-75
2022/10/24 00:44:46;;;;;;;6.45;3.52;;;;;;;19.56;41.99;101391.16;1731508;82;21120;-74
2022/10/24 00:47:25;;;;;;;5.05;3.58;;;;;;;19.56;42.01;101384.25;1731494;81;21901;-74
2022/10/24 00:50:13;;;;;;;6.05;4.00;;;;;;;19.56;42.00;101384.25;1731440;82;21379;-75
2022/10/24 00:52:44;;;;;;;4.97;4.00;;;;;;;19.56;41.97;101387.81;1731284;81;21017;-74
2022/10/24 00:55:11;;;;;;;4.80;3.58;;;;;;;19.56;41.97;101391.95;1731627;82;20940;-74
2022/10/24 00:57:49;;;;;;;5.67;4.05;;;;;;;19.55;41.98;101388.12;1733204;81;21091;-74
2022/10/24 01:00:20;;;;;;;5.20;4.10;;;;;;;19.55;41.98;101386.75;1732704;81;21952;-77
2022/10/24 01:02:46;;;;;;;7.78;4.28;;;;;;;19.55;41.96;101389.50;1732322;82;21052;-74
2022/10/24 01:05:12;;;;;;;4.97;3.70;;;;;;;19.54;41.98;101394.20;1728692;82;21091;-74
2022/10/24 01:08:25;;;;;;;5.75;3.65;;;;;;;19.54;42.00;101401.09;1732969;82;21020;-74
2022/10/24 01:11:02;;;;;;;5.65;3.65;;;;;;;19.54;42.00;101393.37;1732646;81;21080;-74
2022/10/24 01:13:55;;;;;;;5.12;3.80;;;;;;;19.53;41.99;101402.77;1688064;83;22173;-74
2022/10/24 01:16:39;;;;;;;6.33;3.67;;;;;;;19.53;41.98;101399.45;1733056;81;21032;-73
2022/10/24 01:19:31;;;;;;;5.92;3.95;;;;;;;19.52;41.96;101397.80;1732450;81;21019;-74
2022/10/24 01:22:14;;;;;;;5.87;3.90;;;;;;;19.53;41.97;101393.10;1733019;82;21032;-74
2022/10/24 01:25:04;;;;;;;8.13;4.08;;;;;;;19.52;41.96;101392.28;1732879;81;21078;-74
2022/10/24 01:27:56;;;;;;;7.25;4.00;;;;;;;19.51;41.98;101403.63;1733093;81;22539;-74
2022/10/24 01:30:23;;;;;;;6.15;3.92;;;;;;;19.51;41.96;101398.94;1732113;81;21091;-74
2022/10/24 01:33:03;;;;;;;5.92;3.72;;;;;;;19.50;41.98;101396.47;1732552;81;21058;-75
2022/10/24 01:35:52;;;;;;;5.95;3.83;;;;;;;19.50;41.98;101390.95;1732829;81;21554;-74
2022/10/24 01:38:41;;;;;;;4.30;3.25;;;;;;;19.51;42.00;101389.84;1733237;82;21080;-74
2022/10/24 01:41:11;;;;;;;5.25;3.27;;;;;;;19.49;41.99;101385.98;1732674;81;21282;-75
2022/10/24 01:43:48;;;;;;;5.30;4.03;;;;;;;19.49;42.02;101392.05;1704160;82;20956;-74
2022/10/24 01:46:18;;;;;;;4.83;3.80;;;;;;;19.50;42.02;101390.95;1732989;81;21040;-74
2022/10/24 01:48:48;;;;;;;5.45;3.45;;;;;;;19.50;41.99;101385.42;1668963;84;21557;-74
2022/10/24 01:51:15;;;;;;;4.83;3.67;;;;;;;19.48;41.99;101373.30;1732265;81;21123;-74
2022/10/24 01:53:42;;;;;;;6.95;4.20;;;;;;;19.49;41.99;101364.45;1732321;82;21458;-73
2022/10/24 01:56:09;;;;;;;5.55;3.70;;;;;;;19.49;42.02;101369.42;1727746;82;21068;-74
2022/10/24 01:58:35;;;;;;;4.80;3.72;;;;;;;19.49;42.04;101363.91;1732881;82;21028;-75
2022/10/24 02:01:06;;;;;;;6.08;4.10;;;;;;;19.49;42.01;101362.52;1732533;81;21028;-74
2022/10/24 02:03:44;;;;;;;5.08;3.62;;;;;;;19.49;41.99;101359.77;1688307;84;21062;-75
2022/10/24 02:06:17;;;;;;;5.08;3.70;;;;;;;19.50;42.03;101364.73;1732975;81;21204;-74
2022/10/24 02:08:47;;;;;;;6.75;4.15;;;;;;;19.50;42.02;101357.83;1732960;81;22280;-75
2022/10/24 02:11:14;;;;;;;4.95;3.67;;;;;;;19.50;42.02;101357.83;1731502;81;21009;-75
2022/10/24 02:14:04;;;;;;;5.40;3.75;;;;;;;19.49;42.01;101354.80;1731426;81;21092;-74
2022/10/24 02:16:31;;;;;;;5.20;3.58;;;;;;;19.50;41.99;101357.83;1731637;82;21060;-74
2022/10/24 02:18:57;;;;;;;5.12;3.70;;;;;;;19.50;41.99;101359.20;1731385;82;20960;-74
2022/10/24 02:21:57;;;;;;;5.12;3.52;;;;;;;19.49;41.99;101357.00;1726351;82;21063;-73
2022/10/24 02:24:35;;;;;;;6.62;3.92;;;;;;;19.49;41.99;101355.63;1731475;81;20996;-74
2022/10/24 02:27:24;;;;;;;5.87;3.90;;;;;;;19.48;41.99;101354.53;1731347;81;21040;-74
2022/10/24 02:29:59;;;;;;;6.55;3.40;;;;;;;19.49;41.98;101360.32;1731094;81;21036;-75
2022/10/24 02:32:41;;;;;;;5.35;3.90;;;;;;;19.48;41.97;101367.77;1729294;81;22066;-74
2022/10/24 02:35:15;;;;;;;6.28;3.95;;;;;;;19.48;41.99;101360.88;1702717;82;21060;-74
2022/10/24 02:37:48;;;;;;;5.60;3.72;;;;;;;19.48;41.99;101363.63;1731739;81;21186;-75
2022/10/24 02:40:15;;;;;;;5.15;3.80;;;;;;;19.49;42.01;101368.59;1731211;81;21064;-75
2022/10/24 02:42:42;;;;;;;5.33;3.95;;;;;;;19.48;42.01;101370.53;1726657;82;21107;-75
2022/10/24 02:45:09;;;;;;;5.37;4.12;;;;;;;19.47;42.00;101370.30;1731762;81;21260;-75
2022/10/24 02:47:36;;;;;;;5.47;3.67;;;;;;;19.49;42.02;101368.59;1732922;81;21088;-75
2022/10/24 02:50:02;;;;;;;6.10;4.00;;;;;;;19.47;42.03;101362.02;1728200;81;21039;-75
2022/10/24 02:52:29;;;;;;;6.45;3.40;;;;;;;19.47;42.02;101350.98;1728208;82;21087;-75
2022/10/24 02:54:55;;;;;;;4.95;3.80;;;;;;;19.48;42.02;101350.39;1732576;81;21043;-75
2022/10/24 02:57:22;;;;;;;5.33;3.50;;;;;;;19.48;42.03;101361.42;1733140;81;21102;-75
2022/10/24 02:59:49;;;;;;;5.25;3.65;;;;;;;19.48;42.05;101347.63;1732801;81;21099;-75
2022/10/24 03:02:15;;;;;;;4.60;3.77;;;;;;;19.48;42.02;101348.45;1732733;82;21123;-75
2022/10/24 03:04:41;;;;;;;4.30;3.15;;;;;;;19.49;42.02;101347.90;1680307;82;21523;-74
2022/10/24 03:07:07;;;;;;;5.37;4.05;;;;;;;19.48;42.04;101352.59;1733413;81;21039;-75
2022/10/24 03:09:34;;;;;;;4.92;3.50;;;;;;;19.49;42.03;101354.80;1732659;81;21120;-75
2022/10/24 03:12:00;;;;;;;6.83;3.90;;;;;;;19.48;42.03;101348.45;1732880;81;21542;-75
2022/10/24 03:14:26;;;;;;;5.35;3.52;;;;;;;19.49;42.02;101352.04;1733185;81;21036;-76
2022/10/24 03:16:52;;;;;;;4.87;3.50;;;;;;;19.49;42.02;101350.66;1732807;81;21095;-75
2022/10/24 03:19:19;;;;;;;6.00;3.90;;;;;;;19.49;42.02;101345.14;1732940;81;21047;-74
2022/10/24 03:21:45;;;;;;;6.03;3.90;;;;;;;19.49;42.02;101342.37;1732956;81;21086;-75
2022/10/24 03:24:11;;;;;;;5.78;3.70;;;;;;;19.48;41.99;101340.17;1732983;81;21537;-75
2022/10/24 03:26:37;;;;;;;5.62;3.90;;;;;;;19.48;41.99;101340.17;1733599;81;21008;-75
2022/10/24 03:29:04;;;;;;;5.17;3.55;;;;;;;19.48;42.02;101332.45;1733068;81;21519;-76
2022/10/24 03:31:30;;;;;;;5.67;4.10;;;;;;;19.48;42.02;101332.45;1732641;81;21102;-76
2022/10/24 03:33:57;;;;;;;6.85;4.10;;;;;;;19.47;42.02;101337.17;1733218;81;21690;-75
2022/10/24 03:36:24;;;;;;;4.90;3.80;;;;;;;19.49;42.02;101347.90;1733164;81;20992;-74
2022/10/24 03:38:50;;;;;;;5.87;3.83;;;;;;;19.49;41.99;101356.18;1732562;81;21110;-75
2022/10/24 03:41:16;;;;;;;5.17;3.65;;;;;;;19.49;41.99;101367.22;1732714;82;21099;-74
2022/10/24 03:43:42;;;;;;;6.03;4.17;;;;;;;19.49;42.01;101369.98;1732834;81;21102;-75
2022/10/24 03:46:08;;;;;;;6.62;3.87;;;;;;;19.48;41.99;101373.30;1733005;82;21385;-75
2022/10/24 03:48:35;;;;;;;5.03;3.77;;;;;;;19.48;42.01;101371.91;1732998;81;21498;-75
2022/10/24 03:51:02;;;;;;;5.28;3.45;;;;;;;19.48;42.02;101374.67;1733010;81;21107;-74
2022/10/24 03:53:28;;;;;;;4.22;3.22;;;;;;;19.48;42.01;101367.77;1732926;81;21689;-75
2022/10/24 03:55:56;;;;;;;5.62;3.50;;;;;;;19.48;42.00;101369.70;1670579;84;21098;-74
2022/10/24 03:58:23;;;;;;;6.35;3.98;;;;;;;19.47;42.00;101370.30;1685065;84;21140;-74
2022/10/24 04:00:49;;;;;;;6.15;3.87;;;;;;;19.47;42.00;101364.77;1728039;81;22035;-74
2022/10/24 04:03:15;;;;;;;5.72;4.03;;;;;;;19.48;42.00;101362.81;1728446;81;21083;-75
2022/10/24 04:05:41;;;;;;;5.47;3.65;;;;;;;19.47;42.00;101359.81;1728488;81;21538;-74
2022/10/24 04:08:08;;;;;;;6.70;3.72;;;;;;;19.47;41.99;101358.43;1728200;81;21091;-75
2022/10/24 04:10:34;;;;;;;5.67;4.05;;;;;;;19.46;42.01;101360.37;1728260;81;21282;-74
2022/10/24 04:13:00;;;;;;;5.00;3.45;;;;;;;19.47;41.99;101366.16;1728180;81;21043;-76
2022/10/24 04:15:27;;;;;;;6.33;3.40;;;;;;;19.47;42.00;101363.95;1709497;82;21459;-75
2022/10/24 04:17:53;;;;;;;4.37;3.30;;;;;;;19.46;41.99;101360.92;1728649;81;21144;-74
2022/10/24 04:20:21;;;;;;;6.60;3.80;;;;;;;19.46;41.99;101357.61;1728320;81;21598;-75
2022/10/24 04:22:47;;;;;;;5.50;3.65;;;;;;;19.47;42.00;101359.81;1728277;81;21179;-75
2022/10/24 04:25:14;;;;;;;7.62;4.08;;;;;;;19.46;42.00;101358.16;1728558;81;20992;-76
2022/10/24 04:27:40;;;;;;;5.65;3.87;;;;;;;19.46;41.99;101359.54;1728584;82;21044;-76
2022/10/24 04:30:11;;;;;;;5.87;3.40;;;;;;;19.46;41.99;101356.78;1709146;82;21714;-74
2022/10/24 04:32:37;;;;;;;5.25;3.47;;;;;;;19.45;42.00;101355.95;1727790;81;21516;-75
2022/10/24 04:35:04;;;;;;;5.72;3.83;;;;;;;19.45;41.99;101357.34;1726885;81;21199;-74
2022/10/24 04:37:31;;;;;;;6.92;3.72;;;;;;;19.46;41.98;101358.16;1726482;82;21005;-74
2022/10/24 04:39:57;;;;;;;5.67;3.55;;;;;;;19.45;41.98;101354.58;1726539;81;21592;-75
2022/10/24 04:42:23;;;;;;;5.03;3.58;;;;;;;19.46;41.99;101360.92;1726522;82;21064;-75
2022/10/24 04:44:50;;;;;;;5.28;3.42;;;;;;;19.45;41.99;101364.23;1707441;81;21083;-75
2022/10/24 04:47:16;;;;;;;5.62;3.75;;;;;;;19.45;41.99;101368.38;1726942;83;21469;-74
2022/10/24 04:49:42;;;;;;;5.17;3.50;;;;;;;19.45;41.99;101371.13;1731550;82;21078;-75
2022/10/24 04:52:09;;;;;;;4.92;3.40;;;;;;;19.45;42.00;101363.41;1726186;82;21083;-74
2022/10/24 04:54:35;;;;;;;5.85;3.65;;;;;;;19.45;42.03;101371.13;1726879;82;21826;-75
2022/10/24 04:57:01;;;;;;;4.90;3.67;;;;;;;19.45;42.04;101376.66;1726743;83;21039;-75
2022/10/24 04:59:28;;;;;;;6.40;3.67;;;;;;;19.45;42.00;101368.93;1726479;83;21135;-75
2022/10/24 05:01:54;;;;;;;4.97;3.20;;;;;;;19.45;42.00;101371.69;1725914;83;21127;-75
2022/10/24 05:04:21;;;;;;;5.47;3.35;;;;;;;19.46;41.99;101380.23;1707422;83;21134;-74
2022/10/24 05:06:47;;;;;;;4.72;3.25;;;;;;;19.45;42.04;101377.20;1732113;82;21387;-74
2022/10/24 05:09:13;;;;;;;5.03;3.55;;;;;;;19.46;42.03;101371.95;1725868;82;21059;-75
2022/10/24 05:11:40;;;;;;;5.62;3.65;;;;;;;19.49;42.04;101374.12;1726079;82;21562;-76
2022/10/24 05:14:06;;;;;;;5.33;2.80;;;;;;;19.50;42.05;101379.91;1727284;81;21032;-74
2022/10/24 05:16:32;;;;;;;4.90;3.58;;;;;;;19.54;42.01;101377.64;1751757;81;21073;-74
2022/10/24 05:18:59;;;;;;;5.25;3.52;;;;;;;19.59;41.97;101381.72;1732848;80;21473;-74
2022/10/24 05:21:25;;;;;;;4.65;3.40;;;;;;;19.64;41.93;101379.45;1749227;80;21073;-75
2022/10/24 05:23:51;;;;;;;4.72;3.17;;;;;;;19.71;41.91;101384.03;1751367;80;21516;-75
2022/10/24 05:26:18;;;;;;;6.47;3.25;;;;;;;19.78;41.85;101389.17;1751142;80;21057;-74
2022/10/24 05:28:50;;;;;;;4.35;3.20;;;;;;;19.84;41.79;101401.24;1756664;80;21081;-78
2022/10/24 05:31:17;;;;;;;5.53;3.30;;;;;;;19.91;41.71;101403.06;1750958;80;22121;-76
2022/10/24 05:33:43;;;;;;;4.87;3.20;;;;;;;20.00;41.64;101408.73;1750957;80;21619;-75
2022/10/24 05:36:09;;;;;;;5.75;2.95;;;;;;;20.11;41.55;101410.24;1755680;80;21872;-74
2022/10/24 05:38:36;;;;;;;5.60;3.40;;;;;;;20.19;41.45;101415.64;1734836;81;21102;-74
2022/10/24 05:41:02;;;;;;;4.50;3.30;;;;;;;20.29;41.38;101416.84;1698897;83;21111;-74
2022/10/24 05:43:28;;;;;;;6.00;3.27;;;;;;;20.39;41.27;101415.34;1699230;83;21044;-74
2022/10/24 05:45:55;;;;;;;5.03;2.95;;;;;;;20.49;41.17;101411.86;1698977;81;21062;-74
2022/10/24 05:48:21;;;;;;;5.97;3.10;;;;;;;20.58;41.07;101411.96;1733881;81;21340;-75
2022/10/24 05:50:47;;;;;;;4.10;2.80;;;;;;;20.69;40.97;101413.45;1730064;81;22313;-74
2022/10/24 05:53:13;;;;;;;4.40;3.10;;;;;;;20.81;40.86;101410.19;1726617;81;21362;-75
2022/10/24 05:55:40;;;;;;;4.45;3.25;;;;;;;20.92;40.72;101417.16;1706567;82;21036;-74
2022/10/24 05:58:06;;;;;;;4.92;3.25;;;;;;;21.04;40.59;101413.92;1731103;81;21176;-75
2022/10/24 06:00:32;;;;;;;5.55;3.05;;;;;;;21.12;40.50;101415.97;1729862;81;21092;-74
2022/10/24 06:03:00;;;;;;;3.85;2.87;;;;;;;21.21;40.39;101418.32;1751493;80;21158;-74
2022/10/24 06:05:32;;;;;;;4.80;3.10;;;;;;;21.28;40.29;101423.70;1743722;80;21067;-75
2022/10/24 06:07:58;;;;;;;4.90;2.90;;;;;;;21.36;40.23;101424.36;1733027;81;21095;-74
2022/10/24 06:10:25;;;;;;;7.60;3.45;;;;;;;21.44;40.17;101426.97;1732735;81;21571;-75
2022/10/24 06:12:51;;;;;;;6.90;3.25;;;;;;;21.49;40.12;101432.41;1720624;81;21246;-75
2022/10/24 06:15:18;;;;;;;7.70;3.52;;;;;;;21.54;40.08;101428.15;1714832;82;21064;-74
2022/10/24 06:17:44;;;;;;;7.87;3.67;;;;;;;21.57;40.06;101434.45;1721738;81;21181;-75
2022/10/24 06:20:10;;;;;;;4.28;3.08;;;;;;;21.61;40.01;101436.84;1738745;80;21074;-76
2022/10/24 06:22:36;;;;;;;4.67;3.45;;;;;;;21.65;39.99;101433.72;1726797;81;21097;-74
2022/10/24 06:25:03;;;;;;;5.67;3.10;;;;;;;21.67;39.96;101432.86;1703472;83;21284;-75
2022/10/24 06:27:30;;;;;;;6.12;3.15;;;;;;;21.70;39.93;101436.94;1670334;83;21094;-77
2022/10/24 06:29:56;;;;;;;7.55;3.45;;;;;;;21.72;39.91;101439.67;1744361;81;21029;-73
2022/10/24 06:32:22;;;;;;;7.40;3.25;;;;;;;21.76;39.88;101431.56;1749480;80;21470;-73
2022/10/24 06:34:49;;;;;;;7.90;3.87;;;;;;;21.77;39.88;101428.46;1734755;81;21091;-75
2022/10/24 06:37:16;;;;;;;5.00;3.37;;;;;;;21.79;39.85;101434.52;1668537;84;21616;-75
2022/10/24 06:39:42;;;;;;;5.83;3.55;;;;;;;21.82;39.86;101430.30;1701598;81;21558;-75
2022/10/24 06:42:08;;;;;;;5.72;3.67;;;;;;;21.83;39.86;101428.62;1681085;83;21054;-75
2022/10/24 06:44:34;;;;;;;6.80;3.85;;;;;;;21.84;39.87;101420.57;1726114;81;21118;-75
2022/10/24 06:47:01;;;;;;;6.00;3.17;;;;;;;21.87;39.90;101417.17;1723584;81;21122;-75
2022/10/24 06:49:27;;;;;;;7.20;3.87;;;;;;;21.90;39.91;101409.38;1709956;81;21228;-75
2022/10/24 06:51:53;;;;;;;6.92;3.98;;;;;;;21.93;39.90;101410.16;1714783;81;21394;-76
2022/10/24 06:54:19;;;;;;;7.55;3.42;;;;;;;21.96;39.90;101424.20;1728134;81;21071;-75
2022/10/24 06:56:46;;;;;;;8.53;3.30;;;;;;;21.98;39.91;101425.29;1704562;81;20950;-75
2022/10/24 06:59:15;;;;;;;6.17;3.50;;;;;;;22.01;39.91;101432.97;1720314;82;21301;-73
2022/10/24 07:01:41;;;;;;;7.30;3.77;;;;;;;22.02;39.92;101433.23;1721618;81;21227;-73
2022/10/24 07:04:07;;;;;;;6.45;3.75;;;;;;;22.04;39.90;101435.93;1727648;81;21554;-73
2022/10/24 07:06:34;;;;;;;9.63;3.67;;;;;;;22.02;39.93;101434.61;1720964;81;21035;-74
2022/10/24 07:09:00;;;;;;;13.25;3.72;;;;;;;22.03;39.97;101432.08;1704684;82;21493;-74
2022/10/24 07:11:27;;;;;;;6.15;3.60;;;;;;;22.01;40.03;101432.41;1725246;81;21039;-75
2022/10/24 07:13:55;;;;;;;8.90;3.62;;;;;;;22.01;40.13;101434.36;1719044;82;22445;-81
2022/10/24 07:16:21;;;;;;;8.43;3.58;;;;;;;21.98;40.20;101432.22;1729034;81;21428;-80
2022/10/24 07:18:48;;;;;;;7.50;4.03;;;;;;;21.95;40.30;101425.89;1707957;81;21032;-78
2022/10/24 07:21:17;;;;;;;10.45;4.47;;;;;;;21.94;40.34;101429.23;1718233;80;21059;-79
2022/10/24 07:23:43;;;;;;;7.35;4.10;;;;;;;21.93;40.43;101432.33;1730935;81;21571;-77
2022/10/24 07:26:15;;;;;;;9.30;3.67;;;;;;;21.88;40.52;101435.44;1714413;81;21323;-79
2022/10/24 07:28:43;;;;;;;9.65;4.55;;;;;;;21.85;40.65;101431.88;1707005;82;21090;-79
2022/10/24 07:31:12;;;;;;;10.50;4.22;;;;;;;21.83;40.75;101425.84;1725899;81;21607;-79
2022/10/24 07:33:43;;;;;;;9.33;4.58;;;;;;;21.81;40.83;101434.22;1725229;81;21627;-80
2022/10/24 07:36:09;;;;;;;8.50;3.80;;;;;;;21.79;40.91;101428.98;1726097;81;21112;-79
2022/10/24 07:38:36;;;;;;;10.60;4.05;;;;;;;21.77;40.98;101424.87;1716197;80;21175;-78
2022/10/24 07:41:04;;;;;;;10.10;4.15;;;;;;;21.74;41.06;101420.78;1730420;82;21025;-78
2022/10/24 07:43:30;;;;;;;11.60;4.78;;;;;;;21.71;41.10;101413.10;1724818;82;21079;-78
2022/10/24 07:45:57;;;;;;;10.75;4.35;;;;;;;21.69;41.18;101408.98;1724274;82;21962;-78
2022/10/24 07:48:23;;;;;;;7.75;4.17;;;;;;;21.67;41.24;101418.19;1730675;81;21071;-78
2022/10/24 07:50:49;;;;;;;11.00;4.30;;;;;;;21.64;41.33;101411.30;1729966;81;21208;-78
2022/10/24 07:53:15;;;;;;;7.83;5.03;;;;;;;21.61;41.41;101413.31;1723574;81;21539;-78
2022/10/24 07:55:48;;;;;;;16.17;5.58;;;;;;;21.58;41.46;101411.17;1728773;81;21076;-77
2022/10/24 07:58:15;;;;;;;10.75;5.33;;;;;;;21.55;41.51;101414.56;1734501;81;21079;-78
2022/10/24 08:00:41;;;;;;;12.35;4.87;;;;;;;21.52;41.55;101417.11;1730940;81;21068;-78
2022/10/24 08:03:07;;;;;;;9.95;4.87;;;;;;;21.50;41.59;101408.31;1729094;81;22046;-78
2022/10/24 08:05:33;;;;;;;13.05;6.50;;;;;;;21.48;41.64;101399.48;1723007;81;21076;-78
2022/10/24 08:08:00;;;;;;;12.28;5.05;;;;;;;21.46;41.69;101396.22;1732438;82;21040;-78
2022/10/24 08:10:26;;;;;;;14.40;6.03;;;;;;;21.44;41.73;101404.81;1707783;83;21094;-78
2022/10/24 08:12:52;;;;;;;19.52;5.28;;;;;;;21.38;41.76;101399.97;1703957;82;21130;-78
2022/10/24 08:15:19;;;;;;;15.58;5.80;;;;;;;21.37;41.82;101408.02;1734907;80;21108;-77
2022/10/24 08:17:45;;;;;;;12.50;5.87;;;;;;;21.35;41.87;101400.57;1729724;81;21075;-78
2022/10/24 08:20:11;;;;;;;11.53;5.80;;;;;;;21.34;41.90;101409.20;1717791;82;21081;-78
2022/10/24 08:22:38;;;;;;;14.93;6.03;;;;;;;21.31;41.93;101409.23;1723530;81;21463;-78
2022/10/24 08:25:08;;;;;;;14.63;5.75;;;;;;;21.29;41.99;101406.53;1726597;81;21057;-78
2022/10/24 08:27:33;;;;;;;18.45;6.45;;;;;;;21.27;42.07;101408.77;1686861;83;21446;-77
2022/10/24 08:29:59;;;;;;;19.65;5.60;;;;;;;21.24;42.15;101405.24;1744755;80;21038;-78
2022/10/24 08:32:26;;;;;;;18.62;6.12;;;;;;;21.22;42.21;101405.54;1747402;80;21019;-78
2022/10/24 08:34:53;;;;;;;12.47;5.50;;;;;;;21.20;42.32;101406.42;1705393;81;39575;-79
2022/10/24 08:37:19;;;;;;;18.87;5.87;;;;;;;21.19;42.42;101411.70;1744192;81;21063;-78
2022/10/24 08:39:45;;;;;;;13.03;4.90;;;;;;;21.19;42.51;101410.88;1731781;80;21360;-79
2022/10/24 08:42:13;;;;;;;18.07;6.05;;;;;;;21.17;42.56;101405.66;1723552;81;21099;-78
2022/10/24 08:44:42;;;;;;;18.27;5.30;;;;;;;21.16;42.63;101401.25;1732751;81;21681;-78
2022/10/24 08:47:46;;;;;;;12.90;5.83;;;;;;;21.15;42.70;101402.93;1726870;80;21043;-78
2022/10/24 08:50:35;;;;;;;12.75;6.33;;;;;;;21.14;42.77;101406.26;1730360;81;21043;-78
2022/10/24 08:53:24;;;;;;;13.40;5.35;;;;;;;21.13;42.82;101401.05;1743381;81;21151;-77
2022/10/24 08:55:55;;;;;;;15.93;6.42;;;;;;;21.11;42.88;101396.34;1735249;81;21021;-77
2022/10/24 08:58:42;;;;;;;19.60;5.72;;;;;;;21.09;42.89;101395.84;1711100;83;21043;-77
2022/10/24 09:01:15;;;;;;;13.32;5.62;;;;;;;21.08;42.94;101394.20;1721254;82;21061;-77
2022/10/24 09:03:45;;;;;;;18.67;6.80;;;;;;;21.05;42.97;101396.20;1713913;81;21118;-78
2022/10/24 09:06:26;;;;;;;16.82;6.50;;;;;;;21.04;43.02;101395.94;1725904;82;21340;-77
2022/10/24 09:08:55;;;;;;;12.73;6.15;;;;;;;21.01;43.11;101387.67;1714001;81;21119;-78
2022/10/24 09:11:52;;;;;;;17.12;5.97;;;;;;;21.02;43.11;101390.70;1709409;83;21005;-76
2022/10/24 09:14:29;;;;;;;11.45;6.05;;;;;;;21.01;43.16;101393.20;1679903;84;21035;-78
2022/10/24 09:17:18;;;;;;;15.88;6.12;;;;;;;20.99;43.15;101387.17;1676165;84;21040;-77
2022/10/24 09:19:52;;;;;;;12.47;6.42;;;;;;;20.98;43.16;101386.91;1715090;81;21087;-77
2022/10/24 09:22:19;;;;;;;14.45;6.10;;;;;;;20.96;43.20;101383.64;1716514;82;21023;-77
2022/10/24 09:25:01;;;;;;;16.67;5.80;;;;;;;20.95;43.23;101388.91;1735876;81;21025;-77
2022/10/24 09:27:31;;;;;;;13.53;6.28;;;;;;;20.95;43.24;101389.73;1694395;83;21132;-77
2022/10/24 09:29:58;;;;;;;12.13;6.00;;;;;;;20.95;43.25;101386.14;1680385;83;21436;-77
2022/10/24 09:32:26;;;;;;;10.78;5.83;;;;;;;20.93;43.25;101385.05;1739226;81;21812;-77
2022/10/24 09:34:53;;;;;;;12.05;6.55;;;;;;;20.93;43.25;101381.47;1719658;81;21100;-77
2022/10/24 09:37:43;;;;;;;12.85;5.35;;;;;;;20.92;43.28;101375.67;1717394;81;21090;-78
2022/10/24 09:40:32;;;;;;;13.98;6.12;;;;;;;20.90;43.27;101371.02;1662780;84;21708;-77
2022/10/24 09:43:17;;;;;;;11.05;5.47;;;;;;;20.88;43.28;101368.55;1726192;82;21151;-78
2022/10/24 09:45:57;;;;;;;12.70;4.85;;;;;;;20.88;43.28;101367.17;1732407;82;21932;-78
2022/10/24 09:48:31;;;;;;;9.53;5.05;;;;;;;20.87;43.27;101366.11;1717170;81;21303;-78
2022/10/24 09:50:58;;;;;;;9.08;5.08;;;;;;;20.85;43.24;101371.94;1735942;82;21107;-77
2022/10/24 09:53:34;;;;;;;11.50;5.35;;;;;;;20.84;43.26;101372.23;1740249;81;21040;-78
2022/10/24 09:56:10;;;;;;;10.05;5.12;;;;;;;20.82;43.27;101375.32;1721697;81;21102;-78
2022/10/24 09:58:42;;;;;;;10.20;4.75;;;;;;;20.81;43.29;101373.67;1719421;81;21643;-80
2022/10/24 10:01:19;;;;;;;12.82;4.45;;;;;;;20.80;43.28;101362.91;1750498;80;21050;-78
2022/10/24 10:04:04;;;;;;;10.32;4.75;;;;;;;20.80;43.29;101360.97;1748139;80;21510;-77
2022/10/24 10:06:30;;;;;;;9.15;4.12;;;;;;;20.78;43.28;101357.70;1739932;81;21013;-78
2022/10/24 10:08:57;;;;;;;14.47;5.62;;;;;;;20.78;43.30;101356.88;1751186;80;21083;-78
2022/10/24 10:11:31;;;;;;;13.45;4.53;;;;;;;20.79;43.31;101354.38;1723567;80;21089;-77
2022/10/24 10:14:00;;;;;;;7.08;4.22;;;;;;;20.78;43.31;101351.34;1746309;81;21051;-77
2022/10/24 10:16:33;;;;;;;9.85;4.15;;;;;;;20.77;43.31;101345.55;1721919;81;21134;-76
2022/10/24 10:19:18;;;;;;;8.73;4.05;;;;;;;20.77;43.30;101340.02;1759319;80;21073;-77
2022/10/24 10:22:00;;;;;;;9.95;4.33;;;;;;;20.76;43.30;101340.58;1745390;81;21062;-77
2022/10/24 10:24:44;;;;;;;8.73;4.37;;;;;;;20.77;43.29;101342.78;1751092;80;21263;-76
2022/10/24 10:27:31;;;;;;;11.25;4.83;;;;;;;20.77;43.29;101346.94;1742402;80;21039;-77
2022/10/24 10:30:15;;;;;;;12.03;4.50;;;;;;;20.75;43.31;101337.55;1759431;80;21596;-76
2022/10/24 10:33:06;;;;;;;13.62;4.30;;;;;;;20.74;43.32;101332.34;1743734;80;21059;-76
2022/10/24 10:35:50;;;;;;;8.78;4.75;;;;;;;20.73;43.34;101330.70;1752858;80;21616;-76
2022/10/24 10:38:56;;;;;;;9.30;4.55;;;;;;;20.72;43.33;101329.88;1750179;79;21085;-77
2022/10/24 10:41:48;;;;;;;8.40;4.50;;;;;;;20.71;43.37;101324.08;1747255;80;21072;-79
2022/10/24 10:44:54;;;;;;;7.90;4.50;;;;;;;20.70;43.38;101323.84;1757425;80;21029;-77
2022/10/24 10:47:35;;;;;;;8.38;5.08;;;;;;;20.70;43.38;101322.46;1738620;80;21100;-77
2022/10/24 10:50:04;;;;;;;9.13;4.25;;;;;;;20.68;43.39;101324.70;1731583;80;21532;-77
2022/10/24 10:52:34;;;;;;;9.70;4.92;;;;;;;20.68;43.42;101325.26;1727279;80;21063;-76
2022/10/24 10:55:41;;;;;;;9.07;4.80;;;;;;;20.67;43.45;101321.67;1745747;80;21075;-78
2022/10/24 10:58:31;;;;;;;8.88;4.95;;;;;;;20.66;43.49;101318.67;1720637;80;21702;-77
2022/10/24 11:01:40;;;;;;;7.90;5.03;;;;;;;20.65;43.48;101314.27;1741866;81;21078;-77
2022/10/24 11:04:25;;;;;;;7.40;4.75;;;;;;;20.64;43.52;101311.23;1609888;87;21175;-77
2022/10/24 11:07:12;;;;;;;7.97;5.12;;;;;;;20.63;43.52;101305.44;1635582;86;21762;-76
2022/10/24 11:09:46;;;;;;;11.73;5.55;;;;;;;20.64;43.54;101303.50;1706187;80;21090;-76
2022/10/24 11:12:35;;;;;;;8.50;5.45;;;;;;;20.67;43.57;101301.49;1668011;83;21074;-77
2022/10/24 11:15:28;;;;;;;11.65;5.12;;;;;;;20.67;43.58;101294.02;1734206;81;21074;-77
2022/10/24 11:17:58;;;;;;;9.38;5.33;;;;;;;20.69;43.52;101295.11;1747375;80;21919;-77
2022/10/24 11:20:47;;;;;;;12.40;5.67;;;;;;;20.70;43.94;101305.05;1721530;80;22122;-77
2022/10/24 11:23:20;;;;;;;6.92;4.92;;;;;;;20.70;43.94;101305.05;1750138;80;21995;-78
2022/10/24 11:25:53;;;;;;;6.70;4.20;;;;;;;20.71;43.52;101295.05;1725666;80;21133;-77
2022/10/24 11:28:33;;;;;;;10.88;5.50;;;;;;;20.71;43.51;101290.90;1729229;81;21587;-76
2022/10/24 11:31:13;;;;;;;9.10;5.72;;;;;;;20.73;43.52;101294.75;1735336;81;21391;-77
2022/10/24 11:33:46;;;;;;;8.48;5.30;;;;;;;20.73;43.53;101291.43;1721457;81;21076;-78
2022/10/24 11:36:42;;;;;;;9.38;5.58;;;;;;;20.75;43.49;101291.13;1734463;81;21042;-77
2022/10/24 11:39:19;;;;;;;8.95;5.03;;;;;;;20.75;43.49;101284.22;1728422;81;21051;-76
2022/10/24 11:41:54;;;;;;;7.62;5.53;;;;;;;20.75;43.47;101276.72;1725440;82;21610;-77
2022/10/24 11:44:25;;;;;;;7.33;5.10;;;;;;;20.76;43.45;101273.39;1727604;81;21598;-77